sensor_id;sensor_type;location;lat;lon;timestamp;P1;durP1;ratioP1;P2;durP2;ratioP2
17398;SDS011;8817;48.170;8.592;2023-03-12T00:01:12;4.43;;;4.17;;
17398;SDS011;8817;48.170;8.592;2023-03-12T00:03:42;4.17;;;3.87;;
17398;SDS011;8817;48.170;8.592;2023-03-12T00:06:09;3.80;;;3.60;;
17398;SDS011;8817;48.170;8.592;2023-03-12T00:08:36;4.03;;;3.80;;
17398;SDS011;8817;48.170;8.592;2023-03-12T00:11:05;4.50;;;4.20;;
17398;SDS011;8817;48.170;8.592;2023-03-12T00:13:33;4.10;;;3.90;;
17398;SDS011;8817;48.170;8.592;2023-03-12T00:16:06;4.13;;;3.77;;
17398;SDS011;8817;48.170;8.592;2023-03-12T00:18:35;4.00;;;3.80;;
17398;SDS011;8817;48.170;8.592;2023-03-12T00:21:03;4.23;;;3.97;;
17398;SDS011;8817;48.170;8.592;2023-03-12T00:23:31;4.10;;;3.90;;
17398;SDS011;8817;48.170;8.592;2023-03-12T00:25:59;4.30;;;4.00;;
17398;SDS011;8817;48.170;8.592;2023-03-12T00:28:26;7.13;;;4.00;;
17398;SDS011;8817;48.170;8.592;2023-03-12T00:30:53;4.27;;;4.00;;
17398;SDS011;8817;48.170;8.592;2023-03-12T00:33:22;17.77;;;4.43;;
17398;SDS011;8817;48.170;8.592;2023-03-12T00:35:49;9.90;;;4.13;;
17398;SDS011;8817;48.170;8.592;2023-03-12T00:38:17;4.77;;;4.37;;
17398;SDS011;8817;48.170;8.592;2023-03-12T00:40:44;4.07;;;3.87;;
17398;SDS011;8817;48.170;8.592;2023-03-12T00:43:11;6.87;;;4.00;;
17398;SDS011;8817;48.170;8.592;2023-03-12T00:45:38;4.17;;;3.97;;
17398;SDS011;8817;48.170;8.592;2023-03-12T00:48:05;3.83;;;3.70;;
17398;SDS011;8817;48.170;8.592;2023-03-12T00:50:32;4.10;;;3.80;;
17398;SDS011;8817;48.170;8.592;2023-03-12T00:52:59;4.20;;;3.90;;
17398;SDS011;8817;48.170;8.592;2023-03-12T00:55:27;4.07;;;3.80;;
17398;SDS011;8817;48.170;8.592;2023-03-12T00:57:54;4.50;;;3.80;;
17398;SDS011;8817;48.170;8.592;2023-03-12T01:00:21;4.10;;;3.70;;
17398;SDS011;8817;48.170;8.592;2023-03-12T01:02:48;4.70;;;4.40;;
17398;SDS011;8817;48.170;8.592;2023-03-12T01:05:15;4.33;;;3.93;;
17398;SDS011;8817;48.170;8.592;2023-03-12T01:07:43;5.63;;;4.33;;
17398;SDS011;8817;48.170;8.592;2023-03-12T01:10:10;5.00;;;4.53;;
17398;SDS011;8817;48.170;8.592;2023-03-12T01:12:41;4.27;;;3.87;;
17398;SDS011;8817;48.170;8.592;2023-03-12T01:15:09;4.57;;;4.27;;
17398;SDS011;8817;48.170;8.592;2023-03-12T01:17:37;3.60;;;3.47;;
17398;SDS011;8817;48.170;8.592;2023-03-12T01:20:04;4.77;;;4.27;;
17398;SDS011;8817;48.170;8.592;2023-03-12T01:22:33;6.43;;;4.07;;
17398;SDS011;8817;48.170;8.592;2023-03-12T01:25:00;4.30;;;4.07;;
17398;SDS011;8817;48.170;8.592;2023-03-12T01:27:28;8.57;;;4.13;;
17398;SDS011;8817;48.170;8.592;2023-03-12T01:29:56;4.20;;;4.00;;
17398;SDS011;8817;48.170;8.592;2023-03-12T01:32:23;4.10;;;3.90;;
17398;SDS011;8817;48.170;8.592;2023-03-12T01:34:50;4.10;;;3.90;;
17398;SDS011;8817;48.170;8.592;2023-03-12T01:37:17;4.87;;;4.30;;
17398;SDS011;8817;48.170;8.592;2023-03-12T01:39:44;4.67;;;4.27;;
17398;SDS011;8817;48.170;8.592;2023-03-12T01:42:11;4.50;;;4.10;;
17398;SDS011;8817;48.170;8.592;2023-03-12T01:44:48;4.70;;;4.40;;
17398;SDS011;8817;48.170;8.592;2023-03-12T01:47:20;4.60;;;4.30;;
17398;SDS011;8817;48.170;8.592;2023-03-12T01:49:47;4.00;;;3.80;;
17398;SDS011;8817;48.170;8.592;2023-03-12T01:52:17;4.73;;;4.10;;
17398;SDS011;8817;48.170;8.592;2023-03-12T01:54:49;4.40;;;4.20;;
17398;SDS011;8817;48.170;8.592;2023-03-12T01:57:21;5.50;;;4.13;;
17398;SDS011;8817;48.170;8.592;2023-03-12T01:59:51;4.80;;;3.67;;
17398;SDS011;8817;48.170;8.592;2023-03-12T02:02:23;4.40;;;4.20;;
17398;SDS011;8817;48.170;8.592;2023-03-12T02:04:54;4.23;;;4.00;;
17398;SDS011;8817;48.170;8.592;2023-03-12T02:07:28;3.97;;;3.77;;
17398;SDS011;8817;48.170;8.592;2023-03-12T02:09:55;4.30;;;4.10;;
17398;SDS011;8817;48.170;8.592;2023-03-12T02:12:22;3.73;;;3.60;;
17398;SDS011;8817;48.170;8.592;2023-03-12T02:14:49;4.20;;;3.90;;
17398;SDS011;8817;48.170;8.592;2023-03-12T02:17:16;5.10;;;4.70;;
17398;SDS011;8817;48.170;8.592;2023-03-12T02:19:46;6.33;;;4.77;;
17398;SDS011;8817;48.170;8.592;2023-03-12T02:22:20;7.07;;;4.50;;
17398;SDS011;8817;48.170;8.592;2023-03-12T02:24:50;4.87;;;4.47;;
17398;SDS011;8817;48.170;8.592;2023-03-12T02:27:29;4.13;;;3.93;;
17398;SDS011;8817;48.170;8.592;2023-03-12T02:29:59;4.10;;;3.90;;
17398;SDS011;8817;48.170;8.592;2023-03-12T02:32:27;5.33;;;4.17;;
17398;SDS011;8817;48.170;8.592;2023-03-12T02:34:58;4.10;;;3.90;;
17398;SDS011;8817;48.170;8.592;2023-03-12T02:37:25;4.40;;;4.10;;
17398;SDS011;8817;48.170;8.592;2023-03-12T02:39:53;3.97;;;3.80;;
17398;SDS011;8817;48.170;8.592;2023-03-12T02:42:28;4.17;;;3.90;;
17398;SDS011;8817;48.170;8.592;2023-03-12T02:44:55;4.47;;;4.10;;
17398;SDS011;8817;48.170;8.592;2023-03-12T02:47:23;4.37;;;4.13;;
17398;SDS011;8817;48.170;8.592;2023-03-12T02:49:50;9.90;;;4.17;;
17398;SDS011;8817;48.170;8.592;2023-03-12T02:52:17;4.10;;;3.90;;
17398;SDS011;8817;48.170;8.592;2023-03-12T02:54:44;4.03;;;3.83;;
17398;SDS011;8817;48.170;8.592;2023-03-12T02:57:11;4.03;;;3.87;;
17398;SDS011;8817;48.170;8.592;2023-03-12T02:59:40;8.47;;;4.13;;
17398;SDS011;8817;48.170;8.592;2023-03-12T03:02:06;4.73;;;4.37;;
17398;SDS011;8817;48.170;8.592;2023-03-12T03:04:36;4.97;;;4.50;;
17398;SDS011;8817;48.170;8.592;2023-03-12T03:07:03;4.53;;;4.23;;
17398;SDS011;8817;48.170;8.592;2023-03-12T03:09:30;4.33;;;4.13;;
17398;SDS011;8817;48.170;8.592;2023-03-12T03:11:57;4.13;;;3.93;;
17398;SDS011;8817;48.170;8.592;2023-03-12T03:14:24;4.23;;;4.03;;
17398;SDS011;8817;48.170;8.592;2023-03-12T03:16:52;4.70;;;4.40;;
17398;SDS011;8817;48.170;8.592;2023-03-12T03:19:19;5.30;;;4.90;;
17398;SDS011;8817;48.170;8.592;2023-03-12T03:21:46;4.43;;;4.13;;
17398;SDS011;8817;48.170;8.592;2023-03-12T03:24:13;5.00;;;4.60;;
17398;SDS011;8817;48.170;8.592;2023-03-12T03:26:40;4.80;;;4.50;;
17398;SDS011;8817;48.170;8.592;2023-03-12T03:29:08;5.10;;;4.60;;
17398;SDS011;8817;48.170;8.592;2023-03-12T03:31:35;5.20;;;4.83;;
17398;SDS011;8817;48.170;8.592;2023-03-12T03:34:03;4.37;;;4.17;;
17398;SDS011;8817;48.170;8.592;2023-03-12T03:36:30;5.10;;;4.77;;
17398;SDS011;8817;48.170;8.592;2023-03-12T03:38:57;5.40;;;4.93;;
17398;SDS011;8817;48.170;8.592;2023-03-12T03:41:24;5.47;;;4.97;;
17398;SDS011;8817;48.170;8.592;2023-03-12T03:43:54;5.47;;;5.07;;
17398;SDS011;8817;48.170;8.592;2023-03-12T03:46:21;7.03;;;5.00;;
17398;SDS011;8817;48.170;8.592;2023-03-12T03:48:48;5.73;;;5.17;;
17398;SDS011;8817;48.170;8.592;2023-03-12T03:51:17;7.20;;;5.83;;
17398;SDS011;8817;48.170;8.592;2023-03-12T03:53:44;5.03;;;4.60;;
17398;SDS011;8817;48.170;8.592;2023-03-12T03:56:11;5.17;;;4.87;;
17398;SDS011;8817;48.170;8.592;2023-03-12T03:58:39;5.63;;;5.13;;
17398;SDS011;8817;48.170;8.592;2023-03-12T04:01:06;5.53;;;5.10;;
17398;SDS011;8817;48.170;8.592;2023-03-12T04:03:34;5.23;;;4.83;;
17398;SDS011;8817;48.170;8.592;2023-03-12T04:06:01;5.93;;;5.23;;
17398;SDS011;8817;48.170;8.592;2023-03-12T04:08:32;5.47;;;4.97;;
17398;SDS011;8817;48.170;8.592;2023-03-12T04:11:04;5.10;;;4.60;;
17398;SDS011;8817;48.170;8.592;2023-03-12T04:13:32;5.10;;;4.80;;
17398;SDS011;8817;48.170;8.592;2023-03-12T04:15:59;5.53;;;5.23;;
17398;SDS011;8817;48.170;8.592;2023-03-12T04:18:26;5.30;;;4.93;;
17398;SDS011;8817;48.170;8.592;2023-03-12T04:20:53;5.70;;;5.20;;
17398;SDS011;8817;48.170;8.592;2023-03-12T04:23:20;5.57;;;5.10;;
17398;SDS011;8817;48.170;8.592;2023-03-12T04:25:48;5.23;;;4.73;;
17398;SDS011;8817;48.170;8.592;2023-03-12T04:28:15;6.10;;;5.60;;
17398;SDS011;8817;48.170;8.592;2023-03-12T04:30:42;8.87;;;5.30;;
17398;SDS011;8817;48.170;8.592;2023-03-12T04:33:09;5.33;;;4.93;;
17398;SDS011;8817;48.170;8.592;2023-03-12T04:35:36;6.03;;;5.50;;
17398;SDS011;8817;48.170;8.592;2023-03-12T04:38:03;5.63;;;4.87;;
17398;SDS011;8817;48.170;8.592;2023-03-12T04:40:30;6.33;;;5.43;;
17398;SDS011;8817;48.170;8.592;2023-03-12T04:42:58;8.23;;;6.17;;
17398;SDS011;8817;48.170;8.592;2023-03-12T04:45:25;6.23;;;5.60;;
17398;SDS011;8817;48.170;8.592;2023-03-12T04:47:52;6.30;;;5.80;;
17398;SDS011;8817;48.170;8.592;2023-03-12T04:50:19;6.33;;;5.50;;
17398;SDS011;8817;48.170;8.592;2023-03-12T04:52:46;7.37;;;6.07;;
17398;SDS011;8817;48.170;8.592;2023-03-12T04:55:13;6.80;;;6.17;;
17398;SDS011;8817;48.170;8.592;2023-03-12T04:57:40;5.67;;;5.07;;
17398;SDS011;8817;48.170;8.592;2023-03-12T05:00:09;5.80;;;5.40;;
17398;SDS011;8817;48.170;8.592;2023-03-12T05:02:37;5.90;;;5.30;;
17398;SDS011;8817;48.170;8.592;2023-03-12T05:05:04;5.80;;;5.40;;
17398;SDS011;8817;48.170;8.592;2023-03-12T05:07:32;6.93;;;5.83;;
17398;SDS011;8817;48.170;8.592;2023-03-12T05:09:59;6.37;;;5.73;;
17398;SDS011;8817;48.170;8.592;2023-03-12T05:12:26;6.10;;;5.50;;
17398;SDS011;8817;48.170;8.592;2023-03-12T05:14:53;5.93;;;5.33;;
17398;SDS011;8817;48.170;8.592;2023-03-12T05:17:21;7.13;;;5.63;;
17398;SDS011;8817;48.170;8.592;2023-03-12T05:19:48;5.97;;;5.57;;
17398;SDS011;8817;48.170;8.592;2023-03-12T05:22:16;6.80;;;5.60;;
17398;SDS011;8817;48.170;8.592;2023-03-12T05:24:43;7.30;;;5.90;;
17398;SDS011;8817;48.170;8.592;2023-03-12T05:27:09;14.07;;;5.70;;
17398;SDS011;8817;48.170;8.592;2023-03-12T05:29:37;6.97;;;6.03;;
17398;SDS011;8817;48.170;8.592;2023-03-12T05:32:04;7.27;;;5.50;;
17398;SDS011;8817;48.170;8.592;2023-03-12T05:34:33;7.60;;;5.93;;
17398;SDS011;8817;48.170;8.592;2023-03-12T05:37:00;6.40;;;5.73;;
17398;SDS011;8817;48.170;8.592;2023-03-12T05:39:27;8.80;;;6.40;;
17398;SDS011;8817;48.170;8.592;2023-03-12T05:41:54;6.73;;;6.10;;
17398;SDS011;8817;48.170;8.592;2023-03-12T05:44:21;6.97;;;6.33;;
17398;SDS011;8817;48.170;8.592;2023-03-12T05:46:49;7.17;;;5.87;;
17398;SDS011;8817;48.170;8.592;2023-03-12T05:49:16;8.90;;;6.10;;
17398;SDS011;8817;48.170;8.592;2023-03-12T05:51:44;8.10;;;6.30;;
17398;SDS011;8817;48.170;8.592;2023-03-12T05:54:12;9.00;;;6.10;;
17398;SDS011;8817;48.170;8.592;2023-03-12T05:56:39;9.30;;;6.30;;
17398;SDS011;8817;48.170;8.592;2023-03-12T05:59:06;6.63;;;6.03;;
17398;SDS011;8817;48.170;8.592;2023-03-12T06:01:34;6.80;;;6.17;;
17398;SDS011;8817;48.170;8.592;2023-03-12T06:04:02;7.27;;;6.10;;
17398;SDS011;8817;48.170;8.592;2023-03-12T06:06:29;6.97;;;6.20;;
17398;SDS011;8817;48.170;8.592;2023-03-12T06:08:58;6.70;;;6.03;;
17398;SDS011;8817;48.170;8.592;2023-03-12T06:11:25;8.70;;;6.53;;
17398;SDS011;8817;48.170;8.592;2023-03-12T06:13:52;6.67;;;6.03;;
17398;SDS011;8817;48.170;8.592;2023-03-12T06:16:20;8.73;;;6.20;;
17398;SDS011;8817;48.170;8.592;2023-03-12T06:18:47;7.37;;;6.40;;
17398;SDS011;8817;48.170;8.592;2023-03-12T06:21:15;8.20;;;6.27;;
17398;SDS011;8817;48.170;8.592;2023-03-12T06:23:44;6.73;;;6.00;;
17398;SDS011;8817;48.170;8.592;2023-03-12T06:26:13;6.80;;;6.13;;
17398;SDS011;8817;48.170;8.592;2023-03-12T06:28:41;6.63;;;6.07;;
17398;SDS011;8817;48.170;8.592;2023-03-12T06:31:08;6.90;;;6.20;;
17398;SDS011;8817;48.170;8.592;2023-03-12T06:33:35;6.33;;;5.73;;
17398;SDS011;8817;48.170;8.592;2023-03-12T06:36:03;7.00;;;6.40;;
17398;SDS011;8817;48.170;8.592;2023-03-12T06:38:31;8.73;;;6.23;;
17398;SDS011;8817;48.170;8.592;2023-03-12T06:40:59;6.70;;;6.00;;
17398;SDS011;8817;48.170;8.592;2023-03-12T06:43:29;7.13;;;6.30;;
17398;SDS011;8817;48.170;8.592;2023-03-12T06:45:59;6.87;;;6.17;;
17398;SDS011;8817;48.170;8.592;2023-03-12T06:48:27;6.37;;;5.77;;
17398;SDS011;8817;48.170;8.592;2023-03-12T06:50:57;6.43;;;5.90;;
17398;SDS011;8817;48.170;8.592;2023-03-12T06:53:24;8.37;;;6.10;;
17398;SDS011;8817;48.170;8.592;2023-03-12T06:55:51;6.57;;;5.93;;
17398;SDS011;8817;48.170;8.592;2023-03-12T06:58:18;6.80;;;6.20;;
17398;SDS011;8817;48.170;8.592;2023-03-12T07:00:46;8.40;;;6.10;;
17398;SDS011;8817;48.170;8.592;2023-03-12T07:03:13;6.60;;;5.67;;
17398;SDS011;8817;48.170;8.592;2023-03-12T07:05:42;7.03;;;6.17;;
17398;SDS011;8817;48.170;8.592;2023-03-12T07:08:09;5.90;;;5.50;;
17398;SDS011;8817;48.170;8.592;2023-03-12T07:10:36;6.17;;;5.70;;
17398;SDS011;8817;48.170;8.592;2023-03-12T07:13:03;5.97;;;5.57;;
17398;SDS011;8817;48.170;8.592;2023-03-12T07:15:30;5.93;;;5.53;;
17398;SDS011;8817;48.170;8.592;2023-03-12T07:17:59;6.23;;;5.77;;
17398;SDS011;8817;48.170;8.592;2023-03-12T07:20:26;5.97;;;5.50;;
17398;SDS011;8817;48.170;8.592;2023-03-12T07:22:53;6.37;;;5.73;;
17398;SDS011;8817;48.170;8.592;2023-03-12T07:25:20;6.47;;;5.83;;
17398;SDS011;8817;48.170;8.592;2023-03-12T07:27:47;7.77;;;6.23;;
17398;SDS011;8817;48.170;8.592;2023-03-12T07:30:14;6.60;;;5.70;;
17398;SDS011;8817;48.170;8.592;2023-03-12T07:32:41;7.07;;;6.47;;
17398;SDS011;8817;48.170;8.592;2023-03-12T07:35:10;7.80;;;6.00;;
17398;SDS011;8817;48.170;8.592;2023-03-12T07:37:37;9.37;;;6.10;;
17398;SDS011;8817;48.170;8.592;2023-03-12T07:40:04;7.07;;;5.80;;
17398;SDS011;8817;48.170;8.592;2023-03-12T07:42:32;5.50;;;5.10;;
17398;SDS011;8817;48.170;8.592;2023-03-12T07:44:59;6.03;;;5.50;;
17398;SDS011;8817;48.170;8.592;2023-03-12T07:47:28;6.70;;;5.77;;
17398;SDS011;8817;48.170;8.592;2023-03-12T07:49:54;7.97;;;5.90;;
17398;SDS011;8817;48.170;8.592;2023-03-12T07:52:23;5.87;;;5.37;;
17398;SDS011;8817;48.170;8.592;2023-03-12T07:54:50;5.63;;;5.23;;
17398;SDS011;8817;48.170;8.592;2023-03-12T07:57:18;5.67;;;5.30;;
17398;SDS011;8817;48.170;8.592;2023-03-12T07:59:45;6.07;;;5.57;;
17398;SDS011;8817;48.170;8.592;2023-03-12T08:02:12;6.67;;;5.40;;
17398;SDS011;8817;48.170;8.592;2023-03-12T08:04:39;5.57;;;5.13;;
17398;SDS011;8817;48.170;8.592;2023-03-12T08:07:06;5.43;;;5.13;;
17398;SDS011;8817;48.170;8.592;2023-03-12T08:09:34;5.77;;;5.37;;
17398;SDS011;8817;48.170;8.592;2023-03-12T08:12:02;6.07;;;5.57;;
17398;SDS011;8817;48.170;8.592;2023-03-12T08:14:29;5.00;;;4.70;;
17398;SDS011;8817;48.170;8.592;2023-03-12T08:16:56;5.13;;;4.83;;
17398;SDS011;8817;48.170;8.592;2023-03-12T08:19:24;5.13;;;4.90;;
17398;SDS011;8817;48.170;8.592;2023-03-12T08:21:51;5.07;;;4.77;;
17398;SDS011;8817;48.170;8.592;2023-03-12T08:24:19;5.70;;;5.20;;
17398;SDS011;8817;48.170;8.592;2023-03-12T08:26:48;5.37;;;5.07;;
17398;SDS011;8817;48.170;8.592;2023-03-12T08:29:15;5.10;;;4.80;;
17398;SDS011;8817;48.170;8.592;2023-03-12T08:31:42;5.33;;;4.93;;
17398;SDS011;8817;48.170;8.592;2023-03-12T08:34:09;4.40;;;4.20;;
17398;SDS011;8817;48.170;8.592;2023-03-12T08:36:36;4.70;;;4.53;;
17398;SDS011;8817;48.170;8.592;2023-03-12T08:39:03;4.60;;;4.30;;
17398;SDS011;8817;48.170;8.592;2023-03-12T08:41:30;3.90;;;3.80;;
17398;SDS011;8817;48.170;8.592;2023-03-12T08:43:58;3.90;;;3.80;;
17398;SDS011;8817;48.170;8.592;2023-03-12T08:46:26;4.17;;;3.97;;
17398;SDS011;8817;48.170;8.592;2023-03-12T08:48:53;3.83;;;3.73;;
17398;SDS011;8817;48.170;8.592;2023-03-12T08:51:20;3.90;;;3.80;;
17398;SDS011;8817;48.170;8.592;2023-03-12T08:53:47;3.97;;;3.83;;
17398;SDS011;8817;48.170;8.592;2023-03-12T08:56:14;4.10;;;3.80;;
17398;SDS011;8817;48.170;8.592;2023-03-12T08:58:41;3.63;;;3.53;;
17398;SDS011;8817;48.170;8.592;2023-03-12T09:01:09;4.23;;;3.97;;
17398;SDS011;8817;48.170;8.592;2023-03-12T09:03:38;4.20;;;4.00;;
17398;SDS011;8817;48.170;8.592;2023-03-12T09:06:06;4.40;;;4.00;;
17398;SDS011;8817;48.170;8.592;2023-03-12T09:08:37;4.03;;;3.83;;
17398;SDS011;8817;48.170;8.592;2023-03-12T09:11:04;3.60;;;3.50;;
17398;SDS011;8817;48.170;8.592;2023-03-12T09:13:31;3.70;;;3.60;;
17398;SDS011;8817;48.170;8.592;2023-03-12T09:15:58;3.50;;;3.40;;
17398;SDS011;8817;48.170;8.592;2023-03-12T09:18:27;3.97;;;3.77;;
17398;SDS011;8817;48.170;8.592;2023-03-12T09:20:55;3.97;;;3.77;;
17398;SDS011;8817;48.170;8.592;2023-03-12T09:23:23;3.77;;;3.67;;
17398;SDS011;8817;48.170;8.592;2023-03-12T09:25:50;3.63;;;3.53;;
17398;SDS011;8817;48.170;8.592;2023-03-12T09:28:17;3.60;;;3.40;;
17398;SDS011;8817;48.170;8.592;2023-03-12T09:30:45;3.50;;;3.40;;
17398;SDS011;8817;48.170;8.592;2023-03-12T09:33:12;3.80;;;3.60;;
17398;SDS011;8817;48.170;8.592;2023-03-12T09:35:41;3.90;;;3.70;;
17398;SDS011;8817;48.170;8.592;2023-03-12T09:38:10;3.77;;;3.47;;
17398;SDS011;8817;48.170;8.592;2023-03-12T09:40:39;3.63;;;3.50;;
17398;SDS011;8817;48.170;8.592;2023-03-12T09:43:13;3.60;;;3.50;;
17398;SDS011;8817;48.170;8.592;2023-03-12T09:45:46;3.80;;;3.70;;
17398;SDS011;8817;48.170;8.592;2023-03-12T09:48:15;3.70;;;3.60;;
17398;SDS011;8817;48.170;8.592;2023-03-12T09:50:46;3.80;;;3.50;;
17398;SDS011;8817;48.170;8.592;2023-03-12T09:53:15;3.93;;;3.70;;
17398;SDS011;8817;48.170;8.592;2023-03-12T09:55:49;3.57;;;3.40;;
17398;SDS011;8817;48.170;8.592;2023-03-12T09:58:20;3.97;;;3.67;;
17398;SDS011;8817;48.170;8.592;2023-03-12T10:00:50;3.60;;;3.40;;
17398;SDS011;8817;48.170;8.592;2023-03-12T10:03:32;5.10;;;3.50;;
17398;SDS011;8817;48.170;8.592;2023-03-12T10:06:13;3.50;;;3.40;;
17398;SDS011;8817;48.170;8.592;2023-03-12T10:08:46;4.60;;;3.60;;
17398;SDS011;8817;48.170;8.592;2023-03-12T10:11:27;3.17;;;3.07;;
17398;SDS011;8817;48.170;8.592;2023-03-12T10:14:05;3.00;;;3.00;;
17398;SDS011;8817;48.170;8.592;2023-03-12T10:16:44;3.63;;;3.20;;
17398;SDS011;8817;48.170;8.592;2023-03-12T10:22:16;3.30;;;3.10;;
17398;SDS011;8817;48.170;8.592;2023-03-12T10:24:55;3.60;;;3.40;;
17398;SDS011;8817;48.170;8.592;2023-03-12T10:27:29;4.77;;;4.27;;
17398;SDS011;8817;48.170;8.592;2023-03-12T10:29:59;3.10;;;3.00;;
17398;SDS011;8817;48.170;8.592;2023-03-12T10:32:28;3.20;;;3.10;;
17398;SDS011;8817;48.170;8.592;2023-03-12T10:35:12;3.33;;;3.23;;
17398;SDS011;8817;48.170;8.592;2023-03-12T10:37:42;5.13;;;3.30;;
17398;SDS011;8817;48.170;8.592;2023-03-12T10:40:12;4.70;;;3.27;;
17398;SDS011;8817;48.170;8.592;2023-03-12T10:42:40;2.80;;;2.80;;
17398;SDS011;8817;48.170;8.592;2023-03-12T10:45:13;3.17;;;3.07;;
17398;SDS011;8817;48.170;8.592;2023-03-12T10:47:47;3.10;;;2.87;;
17398;SDS011;8817;48.170;8.592;2023-03-12T10:50:17;3.40;;;3.20;;
17398;SDS011;8817;48.170;8.592;2023-03-12T10:52:48;3.03;;;3.03;;
17398;SDS011;8817;48.170;8.592;2023-03-12T10:55:20;3.40;;;3.20;;
17398;SDS011;8817;48.170;8.592;2023-03-12T10:57:48;3.47;;;3.20;;
17398;SDS011;8817;48.170;8.592;2023-03-12T11:00:17;3.10;;;3.00;;
17398;SDS011;8817;48.170;8.592;2023-03-12T11:02:46;3.20;;;3.00;;
17398;SDS011;8817;48.170;8.592;2023-03-12T11:05:23;3.40;;;3.17;;
17398;SDS011;8817;48.170;8.592;2023-03-12T11:07:53;3.23;;;3.03;;
17398;SDS011;8817;48.170;8.592;2023-03-12T11:10:23;3.10;;;3.00;;
17398;SDS011;8817;48.170;8.592;2023-03-12T11:12:53;3.00;;;3.00;;
17398;SDS011;8817;48.170;8.592;2023-03-12T11:15:26;3.53;;;3.30;;
17398;SDS011;8817;48.170;8.592;2023-03-12T11:20:46;4.20;;;3.20;;
17398;SDS011;8817;48.170;8.592;2023-03-12T11:23:19;3.60;;;3.30;;
17398;SDS011;8817;48.170;8.592;2023-03-12T11:25:50;3.50;;;3.37;;
17398;SDS011;8817;48.170;8.592;2023-03-12T11:28:20;3.73;;;3.20;;
17398;SDS011;8817;48.170;8.592;2023-03-12T11:30:50;3.57;;;3.47;;
17398;SDS011;8817;48.170;8.592;2023-03-12T11:33:18;3.20;;;3.10;;
17398;SDS011;8817;48.170;8.592;2023-03-12T11:35:48;3.13;;;2.93;;
17398;SDS011;8817;48.170;8.592;2023-03-12T11:38:30;3.37;;;3.10;;
17398;SDS011;8817;48.170;8.592;2023-03-12T11:41:04;4.33;;;3.37;;
17398;SDS011;8817;48.170;8.592;2023-03-12T11:43:55;3.03;;;2.93;;
17398;SDS011;8817;48.170;8.592;2023-03-12T11:46:47;3.20;;;3.00;;
17398;SDS011;8817;48.170;8.592;2023-03-12T11:49:26;3.30;;;3.10;;
17398;SDS011;8817;48.170;8.592;2023-03-12T11:52:08;3.40;;;3.30;;
17398;SDS011;8817;48.170;8.592;2023-03-12T11:54:49;3.50;;;3.40;;
17398;SDS011;8817;48.170;8.592;2023-03-12T11:57:33;3.80;;;3.20;;
17398;SDS011;8817;48.170;8.592;2023-03-12T12:00:13;3.30;;;3.03;;
17398;SDS011;8817;48.170;8.592;2023-03-12T12:02:53;3.47;;;3.03;;
17398;SDS011;8817;48.170;8.592;2023-03-12T12:05:56;3.17;;;3.17;;
17398;SDS011;8817;48.170;8.592;2023-03-12T12:08:30;3.40;;;3.30;;
17398;SDS011;8817;48.170;8.592;2023-03-12T12:11:15;3.28;;;3.00;;
17398;SDS011;8817;48.170;8.592;2023-03-12T12:13:47;3.00;;;2.90;;
17398;SDS011;8817;48.170;8.592;2023-03-12T12:16:37;3.00;;;2.90;;
17398;SDS011;8817;48.170;8.592;2023-03-12T12:19:19;2.70;;;2.70;;
17398;SDS011;8817;48.170;8.592;2023-03-12T12:21:59;3.00;;;2.90;;
17398;SDS011;8817;48.170;8.592;2023-03-12T12:24:40;3.00;;;2.90;;
17398;SDS011;8817;48.170;8.592;2023-03-12T12:27:24;3.20;;;2.90;;
17398;SDS011;8817;48.170;8.592;2023-03-12T12:30:02;3.05;;;2.92;;
17398;SDS011;8817;48.170;8.592;2023-03-12T12:32:46;3.13;;;3.03;;
17398;SDS011;8817;48.170;8.592;2023-03-12T12:35:26;2.97;;;2.80;;
17398;SDS011;8817;48.170;8.592;2023-03-12T12:37:59;2.80;;;2.80;;
17398;SDS011;8817;48.170;8.592;2023-03-12T12:40:30;2.80;;;2.80;;
17398;SDS011;8817;48.170;8.592;2023-03-12T12:43:05;3.10;;;3.00;;
17398;SDS011;8817;48.170;8.592;2023-03-12T12:45:47;4.60;;;4.20;;
17398;SDS011;8817;48.170;8.592;2023-03-12T12:48:17;3.37;;;3.27;;
17398;SDS011;8817;48.170;8.592;2023-03-12T12:50:46;3.20;;;3.10;;
17398;SDS011;8817;48.170;8.592;2023-03-12T12:53:19;3.50;;;3.30;;
17398;SDS011;8817;48.170;8.592;2023-03-12T12:55:50;3.50;;;3.30;;
17398;SDS011;8817;48.170;8.592;2023-03-12T12:58:33;3.50;;;3.40;;
17398;SDS011;8817;48.170;8.592;2023-03-12T13:01:11;3.50;;;3.20;;
17398;SDS011;8817;48.170;8.592;2023-03-12T13:03:40;3.37;;;3.17;;
17398;SDS011;8817;48.170;8.592;2023-03-12T13:06:08;2.87;;;2.87;;
17398;SDS011;8817;48.170;8.592;2023-03-12T13:11:26;3.03;;;2.97;;
17398;SDS011;8817;48.170;8.592;2023-03-12T13:17:19;3.00;;;3.00;;
17398;SDS011;8817;48.170;8.592;2023-03-12T13:19:48;3.10;;;3.00;;
17398;SDS011;8817;48.170;8.592;2023-03-12T13:22:20;5.10;;;3.00;;
17398;SDS011;8817;48.170;8.592;2023-03-12T13:25:12;3.10;;;2.90;;
17398;SDS011;8817;48.170;8.592;2023-03-12T13:27:57;2.88;;;2.88;;
17398;SDS011;8817;48.170;8.592;2023-03-12T13:30:44;3.00;;;2.90;;
17398;SDS011;8817;48.170;8.592;2023-03-12T13:33:16;4.53;;;2.90;;
17398;SDS011;8817;48.170;8.592;2023-03-12T13:38:52;3.27;;;3.17;;
17398;SDS011;8817;48.170;8.592;2023-03-12T13:41:31;8.60;;;4.60;;
17398;SDS011;8817;48.170;8.592;2023-03-12T13:43:59;3.30;;;3.20;;
17398;SDS011;8817;48.170;8.592;2023-03-12T13:46:56;3.17;;;3.07;;
17398;SDS011;8817;48.170;8.592;2023-03-12T13:49:26;6.87;;;3.27;;
17398;SDS011;8817;48.170;8.592;2023-03-12T13:52:00;3.00;;;3.00;;
17398;SDS011;8817;48.170;8.592;2023-03-12T13:54:39;3.03;;;3.00;;
17398;SDS011;8817;48.170;8.592;2023-03-12T13:57:09;3.17;;;3.07;;
17398;SDS011;8817;48.170;8.592;2023-03-12T13:59:41;3.73;;;3.20;;
17398;SDS011;8817;48.170;8.592;2023-03-12T14:02:13;3.30;;;3.10;;
17398;SDS011;8817;48.170;8.592;2023-03-12T14:04:47;3.10;;;2.90;;
17398;SDS011;8817;48.170;8.592;2023-03-12T14:10:16;3.33;;;3.03;;
17398;SDS011;8817;48.170;8.592;2023-03-12T14:12:52;3.10;;;3.00;;
17398;SDS011;8817;48.170;8.592;2023-03-12T14:15:30;2.97;;;2.90;;
17398;SDS011;8817;48.170;8.592;2023-03-12T14:18:08;3.50;;;3.30;;
17398;SDS011;8817;48.170;8.592;2023-03-12T14:20:42;3.47;;;3.27;;
17398;SDS011;8817;48.170;8.592;2023-03-12T14:23:19;3.20;;;3.10;;
17398;SDS011;8817;48.170;8.592;2023-03-12T14:25:47;3.40;;;3.30;;
17398;SDS011;8817;48.170;8.592;2023-03-12T14:28:17;3.97;;;3.07;;
17398;SDS011;8817;48.170;8.592;2023-03-12T14:30:48;3.10;;;2.90;;
17398;SDS011;8817;48.170;8.592;2023-03-12T14:33:21;6.17;;;3.00;;
17398;SDS011;8817;48.170;8.592;2023-03-12T14:35:54;3.00;;;2.90;;
17398;SDS011;8817;48.170;8.592;2023-03-12T14:38:24;3.00;;;2.90;;
17398;SDS011;8817;48.170;8.592;2023-03-12T14:40:56;3.40;;;3.20;;
17398;SDS011;8817;48.170;8.592;2023-03-12T14:43:28;3.10;;;3.00;;
17398;SDS011;8817;48.170;8.592;2023-03-12T14:45:57;3.20;;;3.10;;
17398;SDS011;8817;48.170;8.592;2023-03-12T14:48:26;3.00;;;2.80;;
17398;SDS011;8817;48.170;8.592;2023-03-12T14:50:56;3.10;;;2.90;;
17398;SDS011;8817;48.170;8.592;2023-03-12T14:53:25;3.70;;;3.40;;
17398;SDS011;8817;48.170;8.592;2023-03-12T14:55:59;4.23;;;2.90;;
17398;SDS011;8817;48.170;8.592;2023-03-12T14:58:30;3.00;;;2.90;;
17398;SDS011;8817;48.170;8.592;2023-03-12T15:00:58;3.10;;;3.00;;
17398;SDS011;8817;48.170;8.592;2023-03-12T15:03:27;3.03;;;2.80;;
17398;SDS011;8817;48.170;8.592;2023-03-12T15:05:57;3.10;;;2.90;;
17398;SDS011;8817;48.170;8.592;2023-03-12T15:08:24;3.10;;;2.90;;
17398;SDS011;8817;48.170;8.592;2023-03-12T15:10:53;3.33;;;2.83;;
17398;SDS011;8817;48.170;8.592;2023-03-12T15:13:22;4.73;;;3.07;;
17398;SDS011;8817;48.170;8.592;2023-03-12T15:15:51;3.13;;;2.87;;
17398;SDS011;8817;48.170;8.592;2023-03-12T15:18:20;2.87;;;2.80;;
17398;SDS011;8817;48.170;8.592;2023-03-12T15:20:51;4.20;;;3.30;;
17398;SDS011;8817;48.170;8.592;2023-03-12T15:23:20;3.30;;;3.20;;
17398;SDS011;8817;48.170;8.592;2023-03-12T15:28:33;3.20;;;3.07;;
17398;SDS011;8817;48.170;8.592;2023-03-12T15:31:05;3.50;;;3.20;;
17398;SDS011;8817;48.170;8.592;2023-03-12T15:33:35;3.40;;;3.20;;
17398;SDS011;8817;48.170;8.592;2023-03-12T15:36:03;3.20;;;3.10;;
17398;SDS011;8817;48.170;8.592;2023-03-12T15:38:44;5.60;;;3.57;;